sensor_id;sensor_type;location;lat;lon;timestamp;pressure;altitude;pressure_sealevel;temperature;humidity
31005;BME280;17676;52.254;4.490;2022-07-29T00:00:10;101736.59;;;18.01;100.00
31005;BME280;17676;52.254;4.490;2022-07-29T00:02:35;101736.75;;;18.06;100.00
31005;BME280;17676;52.254;4.490;2022-07-29T00:05:02;101725.06;;;18.11;100.00
31005;BME280;17676;52.254;4.490;2022-07-29T00:07:27;101731.41;;;18.23;100.00
31005;BME280;17676;52.254;4.490;2022-07-29T00:09:53;101718.66;;;18.17;100.00
31005;BME280;17676;52.254;4.490;2022-07-29T00:12:20;101714.22;;;18.16;100.00
31005;BME280;17676;52.254;4.490;2022-07-29T00:14:47;101708.88;;;18.09;100.00
31005;BME280;17676;52.254;4.490;2022-07-29T00:17:13;101710.78;;;18.09;100.00
31005;BME280;17676;52.254;4.490;2022-07-29T00:19:38;101715.53;;;18.13;100.00
31005;BME280;17676;52.254;4.490;2022-07-29T00:22:03;101710.78;;;18.09;100.00
31005;BME280;17676;52.254;4.490;2022-07-29T00:24:29;101701.50;;;17.98;100.00
31005;BME280;17676;52.254;4.490;2022-07-29T00:26:54;101713.16;;;18.05;100.00
31005;BME280;17676;52.254;4.490;2022-07-29T00:29:20;101707.88;;;17.92;100.00
31005;BME280;17676;52.254;4.490;2022-07-29T00:31:45;101702.41;;;17.92;100.00
31005;BME280;17676;52.254;4.490;2022-07-29T00:34:11;101710.50;;;17.99;100.00
31005;BME280;17676;52.254;4.490;2022-07-29T00:36:55;101706.34;;;17.96;100.00
31005;BME280;17676;52.254;4.490;2022-07-29T00:39:21;101700.19;;;18.01;100.00
31005;BME280;17676;52.254;4.490;2022-07-29T00:41:46;101702.75;;;17.96;100.00
31005;BME280;17676;52.254;4.490;2022-07-29T00:44:12;101687.75;;;17.87;100.00
31005;BME280;17676;52.254;4.490;2022-07-29T00:46:37;101707.78;;;17.99;100.00
31005;BME280;17676;52.254;4.490;2022-07-29T00:49:03;101691.56;;;17.86;100.00
31005;BME280;17676;52.254;4.490;2022-07-29T00:51:29;101689.19;;;17.89;100.00
31005;BME280;17676;52.254;4.490;2022-07-29T00:53:55;101691.34;;;17.99;100.00
31005;BME280;17676;52.254;4.490;2022-07-29T00:56:22;101697.78;;;17.93;100.00
31005;BME280;17676;52.254;4.490;2022-07-29T00:58:48;101695.38;;;17.96;100.00
31005;BME280;17676;52.254;4.490;2022-07-29T01:01:18;101690.63;;;17.92;100.00
31005;BME280;17676;52.254;4.490;2022-07-29T01:03:43;101690.16;;;17.95;100.00
31005;BME280;17676;52.254;4.490;2022-07-29T01:06:09;101688.13;;;17.90;100.00
31005;BME280;17676;52.254;4.490;2022-07-29T01:08:35;101689.06;;;17.96;100.00
31005;BME280;17676;52.254;4.490;2022-07-29T01:11:01;101691.81;;;17.96;100.00
31005;BME280;17676;52.254;4.490;2022-07-29T01:13:31;101691.78;;;17.73;100.00
31005;BME280;17676;52.254;4.490;2022-07-29T01:16:03;101684.75;;;17.77;100.00
31005;BME280;17676;52.254;4.490;2022-07-29T01:18:32;101692.38;;;17.75;100.00
31005;BME280;17676;52.254;4.490;2022-07-29T01:24:07;101678.66;;;17.75;100.00
31005;BME280;17676;52.254;4.490;2022-07-29T01:26:49;101686.19;;;17.68;100.00
31005;BME280;17676;52.254;4.490;2022-07-29T01:31:58;101678.41;;;17.65;100.00
31005;BME280;17676;52.254;4.490;2022-07-29T01:34:29;101677.00;;;17.74;100.00
31005;BME280;17676;52.254;4.490;2022-07-29T01:37:12;101683.22;;;17.81;100.00
31005;BME280;17676;52.254;4.490;2022-07-29T01:39:42;101674.88;;;17.76;100.00
31005;BME280;17676;52.254;4.490;2022-07-29T01:48:21;101674.19;;;17.51;100.00
31005;BME280;17676;52.254;4.490;2022-07-29T01:50:51;101670.41;;;17.52;100.00
31005;BME280;17676;52.254;4.490;2022-07-29T01:53:30;101666.72;;;17.58;100.00
31005;BME280;17676;52.254;4.490;2022-07-29T01:55:59;101667.94;;;17.62;100.00
31005;BME280;17676;52.254;4.490;2022-07-29T01:58:26;101669.13;;;17.66;100.00
31005;BME280;17676;52.254;4.490;2022-07-29T02:00:54;101670.69;;;17.73;100.00
31005;BME280;17676;52.254;4.490;2022-07-29T02:03:22;101660.00;;;17.72;100.00
31005;BME280;17676;52.254;4.490;2022-07-29T02:05:49;101653.91;;;17.70;100.00
31005;BME280;17676;52.254;4.490;2022-07-29T02:08:16;101647.34;;;17.71;100.00
31005;BME280;17676;52.254;4.490;2022-07-29T02:10:45;101656.06;;;17.68;100.00
31005;BME280;17676;52.254;4.490;2022-07-29T02:13:13;101650.19;;;17.64;100.00
31005;BME280;17676;52.254;4.490;2022-07-29T02:15:42;101653.16;;;17.63;100.00
31005;BME280;17676;52.254;4.490;2022-07-29T02:18:13;101653.66;;;17.71;100.00
31005;BME280;17676;52.254;4.490;2022-07-29T02:20:42;101645.09;;;17.68;100.00
31005;BME280;17676;52.254;4.490;2022-07-29T02:23:10;101650.66;;;17.61;100.00
31005;BME280;17676;52.254;4.490;2022-07-29T02:25:37;101654.13;;;17.57;100.00
31005;BME280;17676;52.254;4.490;2022-07-29T02:28:04;101649.94;;;17.54;100.00
31005;BME280;17676;52.254;4.490;2022-07-29T02:30:39;101638.72;;;17.44;100.00
31005;BME280;17676;52.254;4.490;2022-07-29T02:33:06;101650.19;;;17.53;100.00
31005;BME280;17676;52.254;4.490;2022-07-29T02:35:36;101652.03;;;17.41;100.00
31005;BME280;17676;52.254;4.490;2022-07-29T02:38:03;101645.91;;;17.39;100.00
31005;BME280;17676;52.254;4.490;2022-07-29T02:40:48;101644.66;;;17.41;100.00
31005;BME280;17676;52.254;4.490;2022-07-29T02:43:17;101639.56;;;17.45;100.00
31005;BME280;17676;52.254;4.490;2022-07-29T02:45:44;101645.03;;;17.45;100.00
31005;BME280;17676;52.254;4.490;2022-07-29T02:48:13;101651.41;;;17.39;100.00
31005;BME280;17676;52.254;4.490;2022-07-29T02:50:52;101645.22;;;17.32;100.00
31005;BME280;17676;52.254;4.490;2022-07-29T02:53:24;101647.44;;;17.35;100.00
31005;BME280;17676;52.254;4.490;2022-07-29T02:55:59;101645.91;;;17.39;100.00
31005;BME280;17676;52.254;4.490;2022-07-29T02:58:46;101642.13;;;17.40;100.00
31005;BME280;17676;52.254;4.490;2022-07-29T03:01:22;101643.84;;;17.41;100.00
31005;BME280;17676;52.254;4.490;2022-07-29T03:03:50;101633.50;;;17.25;100.00
31005;BME280;17676;52.254;4.490;2022-07-29T03:06:18;101641.84;;;17.30;100.00
31005;BME280;17676;52.254;4.490;2022-07-29T03:08:44;101643.84;;;17.23;100.00
31005;BME280;17676;52.254;4.490;2022-07-29T03:11:11;101645.66;;;17.29;100.00
31005;BME280;17676;52.254;4.490;2022-07-29T03:13:39;101641.19;;;17.16;100.00
31005;BME280;17676;52.254;4.490;2022-07-29T03:16:05;101641.09;;;17.23;100.00
31005;BME280;17676;52.254;4.490;2022-07-29T03:18:32;101649.47;;;17.28;100.00
31005;BME280;17676;52.254;4.490;2022-07-29T03:20:58;101644.25;;;17.38;100.00
31005;BME280;17676;52.254;4.490;2022-07-29T03:23:24;101645.22;;;17.32;100.00
31005;BME280;17676;52.254;4.490;2022-07-29T03:25:51;101639.44;;;17.22;100.00
31005;BME280;17676;52.254;4.490;2022-07-29T03:28:16;101644.09;;;17.21;100.00
31005;BME280;17676;52.254;4.490;2022-07-29T03:30:42;101639.44;;;17.22;100.00
31005;BME280;17676;52.254;4.490;2022-07-29T03:33:07;101639.00;;;17.25;100.00
31005;BME280;17676;52.254;4.490;2022-07-29T03:35:33;101617.75;;;17.09;100.00
31005;BME280;17676;52.254;4.490;2022-07-29T03:37:58;101629.44;;;17.16;100.00
31005;BME280;17676;52.254;4.490;2022-07-29T03:40:54;101626.53;;;17.11;100.00
31005;BME280;17676;52.254;4.490;2022-07-29T03:43:19;101628.34;;;17.05;100.00
31005;BME280;17676;52.254;4.490;2022-07-29T03:45:47;101627.28;;;17.18;100.00
31005;BME280;17676;52.254;4.490;2022-07-29T03:48:16;101630.00;;;17.06;100.00
31005;BME280;17676;52.254;4.490;2022-07-29T03:50:43;101609.03;;;17.00;100.00
31005;BME280;17676;52.254;4.490;2022-07-29T03:53:08;101620.72;;;17.07;100.00
31005;BME280;17676;52.254;4.490;2022-07-29T03:55:41;101621.66;;;17.01;100.00
31005;BME280;17676;52.254;4.490;2022-07-29T03:58:07;101620.63;;;17.14;100.00
31005;BME280;17676;52.254;4.490;2022-07-29T04:00:34;101626.53;;;17.11;100.00
31005;BME280;17676;52.254;4.490;2022-07-29T04:03:01;101621.91;;;17.11;100.00
31005;BME280;17676;52.254;4.490;2022-07-29T04:05:26;101617.78;;;16.91;100.00
31005;BME280;17676;52.254;4.490;2022-07-29T04:07:52;101621.81;;;16.88;100.00
31005;BME280;17676;52.254;4.490;2022-07-29T04:10:17;101618.97;;;16.95;100.00
31005;BME280;17676;52.254;4.490;2022-07-29T04:12:44;101624.75;;;16.87;100.00
31005;BME280;17676;52.254;4.490;2022-07-29T04:15:10;101623.25;;;16.91;100.00
31005;BME280;17676;52.254;4.490;2022-07-29T04:17:35;101621.72;;;16.95;100.00
31005;BME280;17676;52.254;4.490;2022-07-29T04:20:01;101642.38;;;17.09;100.00
31005;BME280;17676;52.254;4.490;2022-07-29T04:22:26;101629.59;;;17.03;100.00
31005;BME280;17676;52.254;4.490;2022-07-29T04:24:52;101632.50;;;17.08;100.00
31005;BME280;17676;52.254;4.490;2022-07-29T04:27:17;101635.81;;;17.10;100.00
31005;BME280;17676;52.254;4.490;2022-07-29T04:29:42;101641.38;;;17.03;100.00
31005;BME280;17676;52.254;4.490;2022-07-29T04:32:08;101635.97;;;17.15;100.00
31005;BME280;17676;52.254;4.490;2022-07-29T04:34:33;101632.97;;;17.05;100.00
31005;BME280;17676;52.254;4.490;2022-07-29T04:36:58;101621.72;;;16.95;100.00
31005;BME280;17676;52.254;4.490;2022-07-29T04:39:27;101643.53;;;17.01;100.00
31005;BME280;17676;52.254;4.490;2022-07-29T04:41:52;101636.91;;;17.09;100.00
31005;BME280;17676;52.254;4.490;2022-07-29T04:44:18;101626.94;;;17.14;100.00
31005;BME280;17676;52.254;4.490;2022-07-29T04:46:44;101635.03;;;17.21;100.00
31005;BME280;17676;52.254;4.490;2022-07-29T04:49:10;101631.38;;;17.27;100.00
31005;BME280;17676;52.254;4.490;2022-07-29T04:51:35;101632.31;;;17.21;100.00
31005;BME280;17676;52.254;4.490;2022-07-29T04:54:01;101631.38;;;17.27;100.00
31005;BME280;17676;52.254;4.490;2022-07-29T04:56:26;101626.09;;;17.14;100.00
31005;BME280;17676;52.254;4.490;2022-07-29T04:58:52;101624.88;;;17.10;100.00
31005;BME280;17676;52.254;4.490;2022-07-29T05:01:18;101621.81;;;17.18;100.00
31005;BME280;17676;52.254;4.490;2022-07-29T05:03:44;101619.16;;;17.29;100.00
31005;BME280;17676;52.254;4.490;2022-07-29T05:06:10;101622.97;;;17.40;100.00
31005;BME280;17676;52.254;4.490;2022-07-29T05:08:36;101622.97;;;17.40;100.00
31005;BME280;17676;52.254;4.490;2022-07-29T05:11:01;101624.44;;;17.42;100.00
31005;BME280;17676;52.254;4.490;2022-07-29T05:13:26;101624.97;;;17.33;100.00
31005;BME280;17676;52.254;4.490;2022-07-29T05:15:52;101643.50;;;17.49;100.00
31005;BME280;17676;52.254;4.490;2022-07-29T05:18:17;101638.16;;;17.54;100.00
31005;BME280;17676;52.254;4.490;2022-07-29T05:20:46;101641.13;;;17.52;100.00
31005;BME280;17676;52.254;4.490;2022-07-29T05:23:12;101636.72;;;17.63;100.00
31005;BME280;17676;52.254;4.490;2022-07-29T05:25:41;101641.56;;;17.49;100.00
31005;BME280;17676;52.254;4.490;2022-07-29T05:28:06;101642.53;;;17.43;100.00
31005;BME280;17676;52.254;4.490;2022-07-29T05:30:32;101653.31;;;17.38;100.00
31005;BME280;17676;52.254;4.490;2022-07-29T05:32:57;101646.69;;;17.46;100.00
31005;BME280;17676;52.254;4.490;2022-07-29T05:35:23;101640.88;;;17.54;100.00
31005;BME280;17676;52.254;4.490;2022-07-29T05:37:48;101652.81;;;17.59;100.00
31005;BME280;17676;52.254;4.490;2022-07-29T05:40:14;101656.50;;;17.65;100.00
31005;BME280;17676;52.254;4.490;2022-07-29T05:42:39;101656.25;;;17.55;100.00
31005;BME280;17676;52.254;4.490;2022-07-29T05:45:06;101654.13;;;17.57;100.00
31005;BME280;17676;52.254;4.490;2022-07-29T05:47:31;101644.69;;;17.53;100.00
31005;BME280;17676;52.254;4.490;2022-07-29T05:49:56;101645.09;;;17.68;100.00
31005;BME280;17676;52.254;4.490;2022-07-29T05:52:22;101643.91;;;17.87;100.00
31005;BME280;17676;52.254;4.490;2022-07-29T05:54:48;101658.00;;;18.25;100.00
31005;BME280;17676;52.254;4.490;2022-07-29T05:57:20;101657.53;;;18.51;100.00
31005;BME280;17676;52.254;4.490;2022-07-29T05:59:49;101658.50;;;18.56;100.00
31005;BME280;17676;52.254;4.490;2022-07-29T06:02:15;101654.44;;;18.59;100.00
31005;BME280;17676;52.254;4.490;2022-07-29T06:04:41;101669.66;;;18.78;100.00
31005;BME280;17676;52.254;4.490;2022-07-29T06:07:06;101662.75;;;18.64;100.00
31005;BME280;17676;52.254;4.490;2022-07-29T06:09:33;101662.91;;;18.69;100.00
31005;BME280;17676;52.254;4.490;2022-07-29T06:11:59;101638.84;;;18.36;100.00
31005;BME280;17676;52.254;4.490;2022-07-29T06:14:25;101646.81;;;18.38;100.00
31005;BME280;17676;52.254;4.490;2022-07-29T06:16:51;101640.19;;;18.85;100.00
31005;BME280;17676;52.254;4.490;2022-07-29T06:19:18;101644.00;;;19.12;100.00
31005;BME280;17676;52.254;4.490;2022-07-29T06:21:44;101659.25;;;19.31;100.00
31005;BME280;17676;52.254;4.490;2022-07-29T06:24:11;101653.34;;;19.11;100.00
31005;BME280;17676;52.254;4.490;2022-07-29T06:26:37;101659.16;;;19.54;100.00
31005;BME280;17676;52.254;4.490;2022-07-29T06:29:02;101657.16;;;19.83;100.00
31005;BME280;17676;52.254;4.490;2022-07-29T06:31:28;101665.78;;;20.19;100.00
31005;BME280;17676;52.254;4.490;2022-07-29T06:33:53;101676.75;;;20.74;100.00
31005;BME280;17676;52.254;4.490;2022-07-29T06:36:19;101674.81;;;21.92;100.00
31005;BME280;17676;52.254;4.490;2022-07-29T06:38:44;101673.88;;;22.91;100.00
31005;BME280;17676;52.254;4.490;2022-07-29T06:41:09;101679.75;;;23.04;100.00
31005;BME280;17676;52.254;4.490;2022-07-29T06:43:39;101678.31;;;24.34;100.00
31005;BME280;17676;52.254;4.490;2022-07-29T06:46:11;101685.91;;;25.55;100.00
31005;BME280;17676;52.254;4.490;2022-07-29T06:48:38;101684.22;;;25.11;100.00
31005;BME280;17676;52.254;4.490;2022-07-29T06:51:05;101696.34;;;25.20;100.00
31005;BME280;17676;52.254;4.490;2022-07-29T06:53:31;101688.00;;;24.26;100.00
31005;BME280;17676;52.254;4.490;2022-07-29T06:55:57;101686.28;;;23.55;100.00
31005;BME280;17676;52.254;4.490;2022-07-29T06:58:27;101676.09;;;23.86;100.00
31005;BME280;17676;52.254;4.490;2022-07-29T07:00:53;101673.31;;;23.66;100.00
31005;BME280;17676;52.254;4.490;2022-07-29T07:03:18;101679.69;;;22.99;100.00
31005;BME280;17676;52.254;4.490;2022-07-29T07:05:45;101684.66;;;22.97;100.00
31005;BME280;17676;52.254;4.490;2022-07-29T07:08:11;101681.28;;;22.85;100.00
31005;BME280;17676;52.254;4.490;2022-07-29T07:10:36;101692.28;;;22.02;100.00
31005;BME280;17676;52.254;4.490;2022-07-29T07:13:02;101689.72;;;22.27;100.00
31005;BME280;17676;52.254;4.490;2022-07-29T07:15:28;101692.94;;;21.83;100.00
31005;BME280;17676;52.254;4.490;2022-07-29T07:17:53;101694.50;;;21.47;100.00
31005;BME280;17676;52.254;4.490;2022-07-29T07:20:19;101705.63;;;21.84;100.00
31005;BME280;17676;52.254;4.490;2022-07-29T07:22:45;101689.25;;;23.33;100.00
31005;BME280;17676;52.254;4.490;2022-07-29T07:25:11;101695.28;;;25.11;100.00
31005;BME280;17676;52.254;4.490;2022-07-29T07:27:37;101691.50;;;26.56;97.78
31005;BME280;17676;52.254;4.490;2022-07-29T07:30:04;101704.63;;;26.45;92.36
31005;BME280;17676;52.254;4.490;2022-07-29T07:32:31;101703.97;;;25.96;95.20
31005;BME280;17676;52.254;4.490;2022-07-29T07:34:56;101704.25;;;25.90;97.79
31005;BME280;17676;52.254;4.490;2022-07-29T07:37:22;101712.38;;;25.81;100.00
31005;BME280;17676;52.254;4.490;2022-07-29T07:39:50;101694.81;;;25.91;99.07
31005;BME280;17676;52.254;4.490;2022-07-29T07:42:15;101696.22;;;25.55;100.00
31005;BME280;17676;52.254;4.490;2022-07-29T07:44:40;101699.28;;;25.87;97.03
31005;BME280;17676;52.254;4.490;2022-07-29T07:47:06;101699.22;;;26.64;95.29
31005;BME280;17676;52.254;4.490;2022-07-29T07:49:31;101697.69;;;26.76;89.23
31005;BME280;17676;52.254;4.490;2022-07-29T07:51:57;101712.72;;;26.42;91.21
31005;BME280;17676;52.254;4.490;2022-07-29T07:54:22;101698.84;;;28.15;87.01
31005;BME280;17676;52.254;4.490;2022-07-29T07:56:48;101703.91;;;29.67;80.29
31005;BME280;17676;52.254;4.490;2022-07-29T07:59:15;101701.38;;;28.76;79.01
31005;BME280;17676;52.254;4.490;2022-07-29T08:01:40;101700.91;;;29.14;77.58
31005;BME280;17676;52.254;4.490;2022-07-29T08:04:06;101711.53;;;29.26;77.96
31005;BME280;17676;52.254;4.490;2022-07-29T08:06:32;101701.19;;;28.99;79.51
31005;BME280;17676;52.254;4.490;2022-07-29T08:09:00;101705.63;;;28.09;77.65
31005;BME280;17676;52.254;4.490;2022-07-29T08:11:25;101697.81;;;27.74;80.39
31005;BME280;17676;52.254;4.490;2022-07-29T08:13:51;101695.63;;;26.01;88.15
31005;BME280;17676;52.254;4.490;2022-07-29T08:16:17;101704.81;;;26.30;92.83
31005;BME280;17676;52.254;4.490;2022-07-29T08:18:44;101691.28;;;26.19;95.93
31005;BME280;17676;52.254;4.490;2022-07-29T08:21:11;101707.41;;;25.25;97.95
31005;BME280;17676;52.254;4.490;2022-07-29T08:23:36;101696.81;;;24.68;100.00
31005;BME280;17676;52.254;4.490;2022-07-29T08:26:10;101691.50;;;24.87;98.91
31005;BME280;17676;52.254;4.490;2022-07-29T08:28:39;101705.41;;;24.72;99.16
31005;BME280;17676;52.254;4.490;2022-07-29T08:31:05;101700.66;;;25.51;100.00
31005;BME280;17676;52.254;4.490;2022-07-29T08:33:32;101706.31;;;25.31;99.54
31005;BME280;17676;52.254;4.490;2022-07-29T08:35:57;101703.78;;;25.78;98.32
31005;BME280;17676;52.254;4.490;2022-07-29T08:38:24;101706.94;;;26.38;96.88
31005;BME280;17676;52.254;4.490;2022-07-29T08:40:51;101703.44;;;25.94;96.58
31005;BME280;17676;52.254;4.490;2022-07-29T08:43:17;101696.03;;;26.18;97.92
31005;BME280;17676;52.254;4.490;2022-07-29T08:45:48;101691.16;;;26.05;95.10
31005;BME280;17676;52.254;4.490;2022-07-29T08:48:19;101697.72;;;25.71;95.17
31005;BME280;17676;52.254;4.490;2022-07-29T08:50:48;101707.16;;;25.21;100.00
31005;BME280;17676;52.254;4.490;2022-07-29T08:53:15;101694.84;;;24.84;100.00
31005;BME280;17676;52.254;4.490;2022-07-29T08:55:46;101697.63;;;25.86;100.00
31005;BME280;17676;52.254;4.490;2022-07-29T08:58:13;101692.72;;;26.97;96.10
31005;BME280;17676;52.254;4.490;2022-07-29T09:00:45;101695.38;;;26.60;91.56
31005;BME280;17676;52.254;4.490;2022-07-29T09:03:15;101698.16;;;26.60;92.74
31005;BME280;17676;52.254;4.490;2022-07-29T09:05:45;101697.72;;;26.43;94.83
31005;BME280;17676;52.254;4.490;2022-07-29T09:08:12;101700.19;;;25.34;94.76
31005;BME280;17676;52.254;4.490;2022-07-29T09:10:38;101707.59;;;25.48;98.96
31005;BME280;17676;52.254;4.490;2022-07-29T09:13:04;101710.47;;;25.77;100.00
31005;BME280;17676;52.254;4.490;2022-07-29T09:15:30;101703.53;;;25.26;100.00
31005;BME280;17676;52.254;4.490;2022-07-29T09:17:55;101693.88;;;25.13;99.77
31005;BME280;17676;52.254;4.490;2022-07-29T09:20:23;101700.03;;;25.64;99.08
31005;BME280;17676;52.254;4.490;2022-07-29T09:22:50;101683.84;;;25.76;99.50
31005;BME280;17676;52.254;4.490;2022-07-29T09:25:40;101701.69;;;26.37;98.56
31005;BME280;17676;52.254;4.490;2022-07-29T09:28:16;101703.63;;;26.36;97.15
31005;BME280;17676;52.254;4.490;2022-07-29T09:30:56;101702.38;;;25.85;92.57
31005;BME280;17676;52.254;4.490;2022-07-29T09:33:30;101697.97;;;25.36;93.48
31005;BME280;17676;52.254;4.490;2022-07-29T09:36:02;101702.25;;;25.62;91.47
31005;BME280;17676;52.254;4.490;2022-07-29T09:38:30;101691.50;;;24.82;94.76
31005;BME280;17676;52.254;4.490;2022-07-29T09:40:58;101681.34;;;24.32;96.65
31005;BME280;17676;52.254;4.490;2022-07-29T09:43:25;101697.34;;;24.70;92.79
31005;BME280;17676;52.254;4.490;2022-07-29T09:45:51;101692.38;;;25.41;99.43
31005;BME280;17676;52.254;4.490;2022-07-29T09:48:18;101695.63;;;24.94;100.00
31005;BME280;17676;52.254;4.490;2022-07-29T09:50:46;101691.00;;;24.60;96.05
31005;BME280;17676;52.254;4.490;2022-07-29T09:55:54;101688.09;;;25.05;99.71
31005;BME280;17676;52.254;4.490;2022-07-29T09:58:21;101692.44;;;25.26;95.95
31005;BME280;17676;52.254;4.490;2022-07-29T10:00:49;101696.19;;;26.32;96.64
31005;BME280;17676;52.254;4.490;2022-07-29T10:03:15;101694.81;;;25.91;91.86
31005;BME280;17676;52.254;4.490;2022-07-29T10:05:43;101690.34;;;26.62;88.62
31005;BME280;17676;52.254;4.490;2022-07-29T10:08:10;101692.31;;;27.69;90.08
31005;BME280;17676;52.254;4.490;2022-07-29T10:10:42;101695.84;;;28.57;80.25
31005;BME280;17676;52.254;4.490;2022-07-29T10:13:08;101686.50;;;28.03;84.27
31005;BME280;17676;52.254;4.490;2022-07-29T10:15:38;101698.78;;;28.02;87.44
31005;BME280;17676;52.254;4.490;2022-07-29T10:18:10;101691.06;;;26.96;87.45
31005;BME280;17676;52.254;4.490;2022-07-29T10:20:36;101685.75;;;27.60;85.02
31005;BME280;17676;52.254;4.490;2022-07-29T10:23:06;101682.03;;;28.52;82.35
31005;BME280;17676;52.254;4.490;2022-07-29T10:25:31;101692.91;;;28.35;83.06
31005;BME280;17676;52.254;4.490;2022-07-29T10:27:57;101706.66;;;29.04;79.14
31005;BME280;17676;52.254;4.490;2022-07-29T10:30:28;101702.91;;;30.20;81.82
31005;BME280;17676;52.254;4.490;2022-07-29T10:44:09;101690.00;;;29.89;80.31
31005;BME280;17676;52.254;4.490;2022-07-29T10:46:40;101695.53;;;30.24;73.07
31005;BME280;17676;52.254;4.490;2022-07-29T10:49:15;101689.81;;;31.29;72.45
31005;BME280;17676;52.254;4.490;2022-07-29T10:54:17;101695.13;;;29.95;68.81
31005;BME280;17676;52.254;4.490;2022-07-29T10:56:42;101679.69;;;29.13;75.95
31005;BME280;17676;52.254;4.490;2022-07-29T11:01:49;101682.69;;;29.30;76.88
31005;BME280;17676;52.254;4.490;2022-07-29T11:04:16;101679.50;;;29.94;78.84
31005;BME280;17676;52.254;4.490;2022-07-29T11:09:29;101693.81;;;31.06;72.84
31005;BME280;17676;52.254;4.490;2022-07-29T11:11:56;101695.03;;;31.14;70.39
31005;BME280;17676;52.254;4.490;2022-07-29T11:17:26;101682.56;;;29.84;74.61
31005;BME280;17676;52.254;4.490;2022-07-29T11:22:56;101687.16;;;30.24;72.62
31005;BME280;17676;52.254;4.490;2022-07-29T11:25:21;101681.88;;;29.16;75.29
31005;BME280;17676;52.254;4.490;2022-07-29T11:27:49;101685.16;;;28.91;79.01
31005;BME280;17676;52.254;4.490;2022-07-29T11:30:17;101688.06;;;28.86;80.19
31005;BME280;17676;52.254;4.490;2022-07-29T11:32:44;101673.72;;;28.34;82.68
31005;BME280;17676;52.254;4.490;2022-07-29T11:35:17;101677.13;;;29.03;81.70
31005;BME280;17676;52.254;4.490;2022-07-29T11:41:19;101685.06;;;28.83;81.06
31005;BME280;17676;52.254;4.490;2022-07-29T11:43:46;101673.28;;;29.75;79.15
31005;BME280;17676;52.254;4.490;2022-07-29T11:46:13;101670.53;;;29.13;78.75
31005;BME280;17676;52.254;4.490;2022-07-29T11:48:42;101672.56;;;29.34;79.21
31005;BME280;17676;52.254;4.490;2022-07-29T11:51:11;101675.59;;;29.60;80.38
31005;BME280;17676;52.254;4.490;2022-07-29T11:53:38;101681.78;;;29.70;76.99
31005;BME280;17676;52.254;4.490;2022-07-29T11:56:10;101674.97;;;29.00;78.93
31005;BME280;17676;52.254;4.490;2022-07-29T11:58:38;101673.38;;;28.67;79.41
31005;BME280;17676;52.254;4.490;2022-07-29T12:01:05;101675.47;;;29.16;77.59
31005;BME280;17676;52.254;4.490;2022-07-29T12:03:32;101688.66;;;29.24;77.83
31005;BME280;17676;52.254;4.490;2022-07-29T12:06:12;101681.50;;;29.58;77.46
31005;BME280;17676;52.254;4.490;2022-07-29T12:08:44;101678.59;;;29.63;77.36
31005;BME280;17676;52.254;4.490;2022-07-29T12:11:18;101684.59;;;29.92;77.82
31005;BME280;17676;52.254;4.490;2022-07-29T12:13:49;101687.41;;;29.43;76.60
31005;BME280;17676;52.254;4.490;2022-07-29T12:16:19;101686.72;;;28.70;80.68
31005;BME280;17676;52.254;4.490;2022-07-29T12:18:58;101691.09;;;28.44;80.24
31005;BME280;17676;52.254;4.490;2022-07-29T12:21:28;101692.28;;;28.70;81.43
31005;BME280;17676;52.254;4.490;2022-07-29T12:23:57;101693.88;;;29.03;81.58
31005;BME280;17676;52.254;4.490;2022-07-29T12:26:24;101684.97;;;29.28;77.37
31005;BME280;17676;52.254;4.490;2022-07-29T12:28:49;101691.78;;;28.82;81.07
31005;BME280;17676;52.254;4.490;2022-07-29T12:31:21;101684.22;;;28.23;81.49
31005;BME280;17676;52.254;4.490;2022-07-29T12:33:55;101688.22;;;28.49;83.07
31005;BME280;17676;52.254;4.490;2022-07-29T12:36:32;101704.25;;;28.84;79.40
31005;BME280;17676;52.254;4.490;2022-07-29T12:39:08;101696.09;;;27.97;82.65
31005;BME280;17676;52.254;4.490;2022-07-29T12:42:13;101701.63;;;27.78;87.22
31005;BME280;17676;52.254;4.490;2022-07-29T12:44:51;101698.38;;;28.08;84.02
31005;BME280;17676;52.254;4.490;2022-07-29T12:47:19;101703.00;;;27.81;85.58
31005;BME280;17676;52.254;4.490;2022-07-29T12:49:50;101692.69;;;27.63;84.13
31005;BME280;17676;52.254;4.490;2022-07-29T12:52:29;101694.34;;;27.45;88.91
31005;BME280;17676;52.254;4.490;2022-07-29T12:54:55;101688.41;;;27.89;88.01
31005;BME280;17676;52.254;4.490;2022-07-29T12:57:30;101686.66;;;27.74;84.94
31005;BME280;17676;52.254;4.490;2022-07-29T13:00:07;101689.34;;;28.16;86.96
31005;BME280;17676;52.254;4.490;2022-07-29T13:02:35;101689.78;;;27.91;87.98
31005;BME280;17676;52.254;4.490;2022-07-29T13:05:15;101691.25;;;28.34;85.78
31005;BME280;17676;52.254;4.490;2022-07-29T13:07:42;101692.09;;;27.84;87.79
31005;BME280;17676;52.254;4.490;2022-07-29T13:10:20;101682.75;;;27.75;88.60
31005;BME280;17676;52.254;4.490;2022-07-29T13:15:42;101690.28;;;27.56;94.50
31005;BME280;17676;52.254;4.490;2022-07-29T13:21:14;101697.81;;;27.74;90.23
31005;BME280;17676;52.254;4.490;2022-07-29T13:23:49;101687.13;;;27.81;89.30
31005;BME280;17676;52.254;4.490;2022-07-29T13:26:17;101685.72;;;27.84;89.57
31005;BME280;17676;52.254;4.490;2022-07-29T13:28:55;101694.44;;;27.77;90.41
31005;BME280;17676;52.254;4.490;2022-07-29T13:31:20;101691.75;;;27.30;92.53
31005;BME280;17676;52.254;4.490;2022-07-29T13:33:47;101682.97;;;26.99;96.07
31005;BME280;17676;52.254;4.490;2022-07-29T13:36:13;101683.13;;;27.08;95.67